CYKL

Schefferville Airport

Schefferville, Quebec, Canada
METAR CYKL 220027Z AUTO 11009G21KT 1 1/2SM -SN OVC007 00/00 A2950 RMK ICG PRESFR SLP016
Observed Flight Rules
Sep-22 @ 00:27 UTC (3 hours ago) Instrument Flight Rules
Wind Visibility Clouds Conditions
110° at 9 knots
 Gusting to 21 knots
1 1/2 miles
Temperatures Readings
Current 0°C / 32°F
Dewpoint 0°C / 32°F
Humidity 100%
Altimeter 29.5" Hg
Pressure 1001.6 hPa
Elevation 521
METAR CYKL 220027Z AUTO 11009G21KT 1 1/2SM -SN OVC007 00/00 A2950 RMK ICG PRESFR SLP016
Observed Flight Rules
Sep-22 @ 00:27 UTC
(3 hours ago)
IFR
Wind Visibility
110° at 9 knots
 Gusting to 21 knots
1 1/2 miles
Clouds
Conditions
Temperature Dewpoint
0°C / 32°F 0°C / 32°F
Humidity Altimeter Pressure
100% 29.5" Hg 1001.6 hPa